East Brookfield, Vermont
Current Conditions -  °F | °C
As of 5:51 PM on Sunday 28 Dec 2014 (Local Time) from KMPV Reporting Station
Clear Clear  
Wind Chill: 26°   Ceiling: Unl
Heat Index: 34°   Visibility: 10mi
Dew Point: 24°   Wind: 10mph
Humidity: 67%   Direction: 310°NW
Pressure: 29.9"   Gusts: 20mph
Location:  43.9542°N, 72.5457°W
Report Text: KMPV 282251Z AUTO 31009G17KT 10SM CLR 01/M04 A2990 RMK AO2 SLP134 T00111044
Loading
Personal Weather Stations






























Interactive Weather Map New forecast layout! Learn more

10-Day Weather Forecast

Advertisements
Track Severe Weather on mobile